sensor_id;sensor_type;location;lat;lon;timestamp;P1;P2;P0
45112;PMS5003;30873;53.908;27.576;2023-02-05T00:01:56;20.2;17.7;11.9
45112;PMS5003;30873;53.908;27.576;2023-02-05T00:06:06;18;14.4;7.2
45112;PMS5003;30873;53.908;27.576;2023-02-05T00:11:54;19.5;15.9;10
45112;PMS5003;30873;53.908;27.576;2023-02-05T00:16:56;22.2;17.6;12.6
45112;PMS5003;30873;53.908;27.576;2023-02-05T00:21:42;21.1;15.7;10.6
45112;PMS5003;30873;53.908;27.576;2023-02-05T00:26:18;17.6;15.4;8.9
45112;PMS5003;30873;53.908;27.576;2023-02-05T00:31:54;16.1;14;8.3
45112;PMS5003;30873;53.908;27.576;2023-02-05T00:36:18;15.6;13.4;8.6
45112;PMS5003;30873;53.908;27.576;2023-02-05T00:41:32;17.1;14.3;7.1
45112;PMS5003;30873;53.908;27.576;2023-02-05T00:46:54;16.4;14.4;8.2
45112;PMS5003;30873;53.908;27.576;2023-02-05T00:51:40;17;13.6;7.4
45112;PMS5003;30873;53.908;27.576;2023-02-05T00:56:40;16.1;12.9;6.9
45112;PMS5003;30873;53.908;27.576;2023-02-05T01:01:34;16.5;13.2;7.7
45112;PMS5003;30873;53.908;27.576;2023-02-05T01:06:58;15.5;13.4;7.7
45112;PMS5003;30873;53.908;27.576;2023-02-05T01:11:06;14.4;12.5;7.5
45112;PMS5003;30873;53.908;27.576;2023-02-05T01:16:42;16;12.5;6.9
45112;PMS5003;30873;53.908;27.576;2023-02-05T01:21:42;17.6;13.4;6.9
45112;PMS5003;30873;53.908;27.576;2023-02-05T01:26:40;15.1;12.2;6.8
45112;PMS5003;30873;53.908;27.576;2023-02-05T01:31:52;14.7;13.1;7.2
45112;PMS5003;30873;53.908;27.576;2023-02-05T01:36:52;15.3;12.8;7.4
45112;PMS5003;30873;53.908;27.576;2023-02-05T01:41:38;16;12.8;6.6
45112;PMS5003;30873;53.908;27.576;2023-02-05T01:46:19;14.7;12.3;6.3
45112;PMS5003;30873;53.908;27.576;2023-02-05T01:51:54;14.8;12.2;6.5
45112;PMS5003;30873;53.908;27.576;2023-02-05T01:56:15;15.8;12.6;6.9
45112;PMS5003;30873;53.908;27.576;2023-02-05T02:01:18;16;12.5;6.7
45112;PMS5003;30873;53.908;27.576;2023-02-05T02:06:18;16.3;12.5;7.5
45112;PMS5003;30873;53.908;27.576;2023-02-05T02:11:42;14.4;11.8;6.2
45112;PMS5003;30873;53.908;27.576;2023-02-05T02:16:06;13.9;11.4;6.5
45112;PMS5003;30873;53.908;27.576;2023-02-05T02:21:44;14.8;11.9;6.9
45112;PMS5003;30873;53.908;27.576;2023-02-05T02:26:42;13.3;11;5.8
45112;PMS5003;30873;53.908;27.576;2023-02-05T02:31:40;15.3;12.3;6.7
45112;PMS5003;30873;53.908;27.576;2023-02-05T02:36:28;13;10.7;6.3
45112;PMS5003;30873;53.908;27.576;2023-02-05T02:41:54;15.6;12.4;6.9
45112;PMS5003;30873;53.908;27.576;2023-02-05T02:46:53;14.1;10.8;6.5
45112;PMS5003;30873;53.908;27.576;2023-02-05T02:51:18;14.1;11.5;6.1
45112;PMS5003;30873;53.908;27.576;2023-02-05T02:56:54;14;10.6;6.2
45112;PMS5003;30873;53.908;27.576;2023-02-05T03:01:18;12.4;11.3;6.5
45112;PMS5003;30873;53.908;27.576;2023-02-05T03:06:42;13.4;10.5;5.8
45112;PMS5003;30873;53.908;27.576;2023-02-05T03:11:07;13;11.1;6.5
45112;PMS5003;30873;53.908;27.576;2023-02-05T03:16:50;13.4;10.1;6.4
45112;PMS5003;30873;53.908;27.576;2023-02-05T03:21:39;14.5;11;6.1
45112;PMS5003;30873;53.908;27.576;2023-02-05T03:26:48;13.2;10.4;5.8
45112;PMS5003;30873;53.908;27.576;2023-02-05T03:31:41;13.5;10.6;6.4
45112;PMS5003;30873;53.908;27.576;2023-02-05T03:36:54;12.6;10.3;5.9
45112;PMS5003;30873;53.908;27.576;2023-02-05T03:41:58;13.1;10.9;6.5
45112;PMS5003;30873;53.908;27.576;2023-02-05T03:46:18;13.3;11.9;6.7
45112;PMS5003;30873;53.908;27.576;2023-02-05T03:51:55;13.4;10.9;6.2
45112;PMS5003;30873;53.908;27.576;2023-02-05T03:56:06;13.7;10.2;5.7
45112;PMS5003;30873;53.908;27.576;2023-02-05T04:01:40;13.1;10.4;5.7
45112;PMS5003;30873;53.908;27.576;2023-02-05T04:06:18;12.5;10.6;5.6
45112;PMS5003;30873;53.908;27.576;2023-02-05T04:11:52;12.4;10.8;7.4
45112;PMS5003;30873;53.908;27.576;2023-02-05T04:16:18;16.1;11.8;7.4
45112;PMS5003;30873;53.908;27.576;2023-02-05T04:21:54;12.7;10.9;7.3
45112;PMS5003;30873;53.908;27.576;2023-02-05T04:26:30;13.1;11.2;6.9
45112;PMS5003;30873;53.908;27.576;2023-02-05T04:31:52;12.3;10.7;6.3
45112;PMS5003;30873;53.908;27.576;2023-02-05T04:36:32;12;9.3;5
45112;PMS5003;30873;53.908;27.576;2023-02-05T04:41:06;11;8.4;5.1
45112;PMS5003;30873;53.908;27.576;2023-02-05T04:46:32;11.7;9.6;5.2
45112;PMS5003;30873;53.908;27.576;2023-02-05T04:51:06;10.2;8.3;4.6
45112;PMS5003;30873;53.908;27.576;2023-02-05T04:56:30;10.4;8;4.6
45112;PMS5003;30873;53.908;27.576;2023-02-05T05:01:52;10.2;8.7;5.1
45112;PMS5003;30873;53.908;27.576;2023-02-05T05:06:28;11.4;9.1;5.5
45112;PMS5003;30873;53.908;27.576;2023-02-05T05:11:24;13.3;10.3;5.7
45112;PMS5003;30873;53.908;27.576;2023-02-05T05:16:50;12.2;10.2;6.4
45112;PMS5003;30873;53.908;27.576;2023-02-05T05:21:36;11.2;8.9;5.5
45112;PMS5003;30873;53.908;27.576;2023-02-05T05:26:06;10.9;9;5.5
45112;PMS5003;30873;53.908;27.576;2023-02-05T05:31:30;11.6;9.4;4.8
45112;PMS5003;30873;53.908;27.576;2023-02-05T05:36:06;11.7;8.8;5.9
45112;PMS5003;30873;53.908;27.576;2023-02-05T05:41:32;9.2;7.1;3.9
45112;PMS5003;30873;53.908;27.576;2023-02-05T05:46:30;10.7;8.8;5.1
45112;PMS5003;30873;53.908;27.576;2023-02-05T05:51:30;11.8;8.8;4.6
45112;PMS5003;30873;53.908;27.576;2023-02-05T05:56:54;11.9;9.1;5.3
45112;PMS5003;30873;53.908;27.576;2023-02-05T06:01:28;10.4;8.7;5.1
45112;PMS5003;30873;53.908;27.576;2023-02-05T06:06:54;11.5;9.1;5.3
45112;PMS5003;30873;53.908;27.576;2023-02-05T06:11:54;8.9;7.5;4.3
45112;PMS5003;30873;53.908;27.576;2023-02-05T06:16:42;7.8;6.9;4
45112;PMS5003;30873;53.908;27.576;2023-02-05T06:21:16;11.6;9.8;6.5
45112;PMS5003;30873;53.908;27.576;2023-02-05T06:26:54;11.4;10.1;6.4
45112;PMS5003;30873;53.908;27.576;2023-02-05T06:31:32;10.5;9.5;6
45112;PMS5003;30873;53.908;27.576;2023-02-05T06:36:32;11.2;9.4;6
45112;PMS5003;30873;53.908;27.576;2023-02-05T06:41:44;11.6;9.9;6.7
45112;PMS5003;30873;53.908;27.576;2023-02-05T06:46:38;10.3;8.6;5.6
45112;PMS5003;30873;53.908;27.576;2023-02-05T06:51:28;12.9;11.2;7.5
45112;PMS5003;30873;53.908;27.576;2023-02-05T06:56:28;11.2;9.1;5.8
45112;PMS5003;30873;53.908;27.576;2023-02-05T07:01:54;9.1;7.8;4.1
45112;PMS5003;30873;53.908;27.576;2023-02-05T07:06:28;10.6;8.7;5
45112;PMS5003;30873;53.908;27.576;2023-02-05T07:11:40;10;7.5;4.4
45112;PMS5003;30873;53.908;27.576;2023-02-05T07:16:06;10.4;8.6;5.3
45112;PMS5003;30873;53.908;27.576;2023-02-05T07:21:52;9.6;7.8;4.8
45112;PMS5003;30873;53.908;27.576;2023-02-05T07:26:18;9;7.6;4.5
45112;PMS5003;30873;53.908;27.576;2023-02-05T07:31:42;10.3;8.3;4.9
45112;PMS5003;30873;53.908;27.576;2023-02-05T07:36:54;9.9;7.3;4.1
45112;PMS5003;30873;53.908;27.576;2023-02-05T07:41:28;10.3;8.4;5
45112;PMS5003;30873;53.908;27.576;2023-02-05T07:46:42;9.7;7.7;4.2
45112;PMS5003;30873;53.908;27.576;2023-02-05T07:51:30;11.1;8.4;4.8
45112;PMS5003;30873;53.908;27.576;2023-02-05T07:56:52;8.3;7.1;4.3
45112;PMS5003;30873;53.908;27.576;2023-02-05T08:01:06;11.5;9.7;5.2
45112;PMS5003;30873;53.908;27.576;2023-02-05T08:06:28;9.9;8.6;5
45112;PMS5003;30873;53.908;27.576;2023-02-05T08:11:06;9.9;7.9;4.2
45112;PMS5003;30873;53.908;27.576;2023-02-05T08:16:42;10.2;8.3;4.7
45112;PMS5003;30873;53.908;27.576;2023-02-05T08:21:18;9.9;8.7;5.3
45112;PMS5003;30873;53.908;27.576;2023-02-05T08:26:50;10.7;8.2;4.5
45112;PMS5003;30873;53.908;27.576;2023-02-05T08:31:38;9.3;7.2;4.2
45112;PMS5003;30873;53.908;27.576;2023-02-05T08:36:38;10.2;8.1;5
45112;PMS5003;30873;53.908;27.576;2023-02-05T08:41:52;10.2;8.3;5
45112;PMS5003;30873;53.908;27.576;2023-02-05T08:46:28;9.8;7.6;4.5
45112;PMS5003;30873;53.908;27.576;2023-02-05T08:51:19;8.3;7.2;3.6
45112;PMS5003;30873;53.908;27.576;2023-02-05T08:56:06;9.2;8;4.7
45112;PMS5003;30873;53.908;27.576;2023-02-05T09:01:42;7.6;5.6;3.4
45112;PMS5003;30873;53.908;27.576;2023-02-05T09:06:20;8.8;7.2;4.3
45112;PMS5003;30873;53.908;27.576;2023-02-05T09:11:44;8.7;7.8;4.1
45112;PMS5003;30873;53.908;27.576;2023-02-05T09:16:32;10.1;7.1;4.2
45112;PMS5003;30873;53.908;27.576;2023-02-05T09:21:40;7.5;6.8;3.8
45112;PMS5003;30873;53.908;27.576;2023-02-05T09:26:40;9.9;8;4.3
45112;PMS5003;30873;53.908;27.576;2023-02-05T09:31:54;8.6;6.7;3.8
45112;PMS5003;30873;53.908;27.576;2023-02-05T09:36:54;10.4;7.8;4.9
45112;PMS5003;30873;53.908;27.576;2023-02-05T09:41:35;9.5;7.5;4.2
45112;PMS5003;30873;53.908;27.576;2023-02-05T09:46:54;10.1;8.6;4.7
45112;PMS5003;30873;53.908;27.576;2023-02-05T09:51:21;10;7.7;4.7
45112;PMS5003;30873;53.908;27.576;2023-02-05T09:56:56;9.4;8.1;4.5
45112;PMS5003;30873;53.908;27.576;2023-02-05T10:01:45;7.9;6.7;3.5
45112;PMS5003;30873;53.908;27.576;2023-02-05T10:06:55;8;6.8;3.3
45112;PMS5003;30873;53.908;27.576;2023-02-05T10:11:30;8.2;7.3;4.5
45112;PMS5003;30873;53.908;27.576;2023-02-05T10:16:58;9;7.2;4
45112;PMS5003;30873;53.908;27.576;2023-02-05T10:21:36;8.6;6.9;4.2
45112;PMS5003;30873;53.908;27.576;2023-02-05T10:26:56;9.9;8.3;4.8
45112;PMS5003;30873;53.908;27.576;2023-02-05T10:31:33;13.7;11.8;7.2
45112;PMS5003;30873;53.908;27.576;2023-02-05T10:36:34;10.7;8.5;5
45112;PMS5003;30873;53.908;27.576;2023-02-05T10:41:34;10.3;8.6;5.5
45112;PMS5003;30873;53.908;27.576;2023-02-05T10:46:08;10.6;8.6;5.2
45112;PMS5003;30873;53.908;27.576;2023-02-05T10:51:54;9.9;7.9;4.7
45112;PMS5003;30873;53.908;27.576;2023-02-05T10:56:56;7.5;6.5;3.9
45112;PMS5003;30873;53.908;27.576;2023-02-05T11:01:14;9.5;8.6;5.5
45112;PMS5003;30873;53.908;27.576;2023-02-05T11:06:07;11.2;9.2;5.5
45112;PMS5003;30873;53.908;27.576;2023-02-05T11:11:54;12.4;9.6;5.6
45112;PMS5003;30873;53.908;27.576;2023-02-05T11:16:34;11.4;9.4;5.2
45112;PMS5003;30873;53.908;27.576;2023-02-05T11:21:20;10;8.4;4.6
45112;PMS5003;30873;53.908;27.576;2023-02-05T11:26:32;11.8;10.5;6.4
45112;PMS5003;30873;53.908;27.576;2023-02-05T11:31:19;12.1;10.3;6.5
45112;PMS5003;30873;53.908;27.576;2023-02-05T11:36:30;11.4;10.4;5.6
45112;PMS5003;30873;53.908;27.576;2023-02-05T11:41:52;10.3;8.5;5.1
45112;PMS5003;30873;53.908;27.576;2023-02-05T11:46:13;11;8.9;4.9
45112;PMS5003;30873;53.908;27.576;2023-02-05T11:51:52;10.8;8.7;4.9
45112;PMS5003;30873;53.908;27.576;2023-02-05T11:56:30;12.1;10.7;6.6
45112;PMS5003;30873;53.908;27.576;2023-02-05T12:01:50;12.9;10.4;6.7
45112;PMS5003;30873;53.908;27.576;2023-02-05T12:06:49;12.7;11;6.5
45112;PMS5003;30873;53.908;27.576;2023-02-05T12:11:20;13.9;11.3;7
45112;PMS5003;30873;53.908;27.576;2023-02-05T12:16:17;14.7;11.8;6.1
45112;PMS5003;30873;53.908;27.576;2023-02-05T12:21:41;13;11.1;6.6
45112;PMS5003;30873;53.908;27.576;2023-02-05T12:26:13;13.1;11.1;6.7
45112;PMS5003;30873;53.908;27.576;2023-02-05T12:31:30;13.1;10.5;6.9
45112;PMS5003;30873;53.908;27.576;2023-02-05T12:36:54;16.3;12;6.5
45112;PMS5003;30873;53.908;27.576;2023-02-05T12:41:38;13.7;10.8;6.2
45112;PMS5003;30873;53.908;27.576;2023-02-05T12:46:43;13.6;10.8;6.2
45112;PMS5003;30873;53.908;27.576;2023-02-05T12:51:29;12;9.9;6
45112;PMS5003;30873;53.908;27.576;2023-02-05T12:56:52;13.9;11.5;7
45112;PMS5003;30873;53.908;27.576;2023-02-05T13:01:07;11.7;9.9;6.1
45112;PMS5003;30873;53.908;27.576;2023-02-05T13:06:43;13.3;10;6.3
45112;PMS5003;30873;53.908;27.576;2023-02-05T13:11:19;10.8;9.9;5.2
45112;PMS5003;30873;53.908;27.576;2023-02-05T13:16:43;12;9.7;5.8
45112;PMS5003;30873;53.908;27.576;2023-02-05T13:21:18;13.4;10.8;5.7
45112;PMS5003;30873;53.908;27.576;2023-02-05T13:26:50;12.2;9.6;6.2
45112;PMS5003;30873;53.908;27.576;2023-02-05T13:31:38;13.8;11.5;6.3
45112;PMS5003;30873;53.908;27.576;2023-02-05T13:37:35;11.8;10.1;6.4
45112;PMS5003;30873;53.908;27.576;2023-02-05T13:41:57;12.8;10.9;6.2
45112;PMS5003;30873;53.908;27.576;2023-02-05T13:46:30;12.9;10.9;6
45112;PMS5003;30873;53.908;27.576;2023-02-05T13:51:40;13;12;7.1
45112;PMS5003;30873;53.908;27.576;2023-02-05T13:56:34;13.5;10;5.9
45112;PMS5003;30873;53.908;27.576;2023-02-05T14:01:39;13.4;11.9;6.4
45112;PMS5003;30873;53.908;27.576;2023-02-05T14:06:19;12.5;10.5;6.3
45112;PMS5003;30873;53.908;27.576;2023-02-05T14:11:42;10;9.1;5.9
45112;PMS5003;30873;53.908;27.576;2023-02-05T14:16:34;11.6;9.5;5.5
45112;PMS5003;30873;53.908;27.576;2023-02-05T14:22:02;13.6;11.5;7.2
45112;PMS5003;30873;53.908;27.576;2023-02-05T14:26:46;13;10.9;6.8
45112;PMS5003;30873;53.908;27.576;2023-02-05T14:31:46;12.9;10.1;5.8
45112;PMS5003;30873;53.908;27.576;2023-02-05T14:36:50;10.6;9.2;5.4
45112;PMS5003;30873;53.908;27.576;2023-02-05T14:41:18;9.3;7.6;4.5
45112;PMS5003;30873;53.908;27.576;2023-02-05T14:46:40;11.5;9.6;6.3
45112;PMS5003;30873;53.908;27.576;2023-02-05T14:51:19;11;9.6;5.9
45112;PMS5003;30873;53.908;27.576;2023-02-05T14:56:41;11.2;9;5.3
45112;PMS5003;30873;53.908;27.576;2023-02-05T15:01:50;11.2;9.9;6.3
45112;PMS5003;30873;53.908;27.576;2023-02-05T15:06:40;9.7;8.4;5.3
45112;PMS5003;30873;53.908;27.576;2023-02-05T15:11:32;10.8;8.6;6
45112;PMS5003;30873;53.908;27.576;2023-02-05T15:16:28;11.6;9.4;5.6
45112;PMS5003;30873;53.908;27.576;2023-02-05T15:21:38;9.4;7.7;4.6
45112;PMS5003;30873;53.908;27.576;2023-02-05T15:26:54;11.6;9.3;5.6
45112;PMS5003;30873;53.908;27.576;2023-02-05T15:31:41;12.6;10.1;5.7
45112;PMS5003;30873;53.908;27.576;2023-02-05T15:36:20;11.2;9.6;6.2
45112;PMS5003;30873;53.908;27.576;2023-02-05T15:41:52;11.6;9.5;5.8
45112;PMS5003;30873;53.908;27.576;2023-02-05T15:46:42;11.9;10.4;6
45112;PMS5003;30873;53.908;27.576;2023-02-05T15:51:40;14.1;10;6.3
45112;PMS5003;30873;53.908;27.576;2023-02-05T15:56:07;9.8;9.1;5.7
45112;PMS5003;30873;53.908;27.576;2023-02-05T16:01:52;14.8;12;7.6
45112;PMS5003;30873;53.908;27.576;2023-02-05T16:06:34;13.2;11.1;7.3
45112;PMS5003;30873;53.908;27.576;2023-02-05T16:11:29;11.9;10;5.8
45112;PMS5003;30873;53.908;27.576;2023-02-05T16:16:16;9.7;7.9;4.6
45112;PMS5003;30873;53.908;27.576;2023-02-05T16:21:51;12.8;10.9;7.7
45112;PMS5003;30873;53.908;27.576;2023-02-05T16:26:41;18.1;16.3;13.3
45112;PMS5003;30873;53.908;27.576;2023-02-05T16:31:30;20.8;19.6;15.8
45112;PMS5003;30873;53.908;27.576;2023-02-05T16:36:41;23.3;22.1;19.4
45112;PMS5003;30873;53.908;27.576;2023-02-05T16:41:29;24.4;22.8;18.8
45112;PMS5003;30873;53.908;27.576;2023-02-05T16:46:40;22;20.5;17.2
45112;PMS5003;30873;53.908;27.576;2023-02-05T16:51:54;23;21.7;18.4
45112;PMS5003;30873;53.908;27.576;2023-02-05T16:56:19;24.7;22.8;19.3
45112;PMS5003;30873;53.908;27.576;2023-02-05T17:01:31;25.8;23.6;20.1
45112;PMS5003;30873;53.908;27.576;2023-02-05T17:06:52;24.8;22.5;18.9
45112;PMS5003;30873;53.908;27.576;2023-02-05T17:11:36;27.5;25.6;22.2
45112;PMS5003;30873;53.908;27.576;2023-02-05T17:16:30;41.1;37.5;32
45112;PMS5003;30873;53.908;27.576;2023-02-05T17:21:32;25.3;23.3;18.6
45112;PMS5003;30873;53.908;27.576;2023-02-05T17:26:32;20.8;18.2;13.9
45112;PMS5003;30873;53.908;27.576;2023-02-05T17:31:18;43.4;39.7;31.7
45112;PMS5003;30873;53.908;27.576;2023-02-05T17:36:40;20.3;18.2;13.8
45112;PMS5003;30873;53.908;27.576;2023-02-05T17:41:30;33.4;29.5;25.4
45112;PMS5003;30873;53.908;27.576;2023-02-05T17:46:54;14.2;12;8.1
45112;PMS5003;30873;53.908;27.576;2023-02-05T17:51:28;13.2;10.1;6.6
45112;PMS5003;30873;53.908;27.576;2023-02-05T17:56:38;11.2;9.4;6.6
45112;PMS5003;30873;53.908;27.576;2023-02-05T18:01:54;11.9;10;6.3
45112;PMS5003;30873;53.908;27.576;2023-02-05T18:06:30;12.9;10.8;7.5
45112;PMS5003;30873;53.908;27.576;2023-02-05T18:11:18;13.7;11.3;6.9
45112;PMS5003;30873;53.908;27.576;2023-02-05T18:16:18;11.8;10.1;7.1
45112;PMS5003;30873;53.908;27.576;2023-02-05T18:21:06;11.2;9.7;6.5
45112;PMS5003;30873;53.908;27.576;2023-02-05T18:26:32;14.2;11.8;8.6
45112;PMS5003;30873;53.908;27.576;2023-02-05T18:31:07;15.5;14;10.9
45112;PMS5003;30873;53.908;27.576;2023-02-05T18:36:07;8.7;7.1;4.1
45112;PMS5003;30873;53.908;27.576;2023-02-05T18:41:52;10.2;8.1;4.5
45112;PMS5003;30873;53.908;27.576;2023-02-05T18:46:28;9.7;7.4;4.8
45112;PMS5003;30873;53.908;27.576;2023-02-05T18:51:54;9.3;7.7;4.8
45112;PMS5003;30873;53.908;27.576;2023-02-05T18:56:44;11.8;9.3;5.6
45112;PMS5003;30873;53.908;27.576;2023-02-05T19:01:16;10.9;9.1;5.7
45112;PMS5003;30873;53.908;27.576;2023-02-05T19:06:15;10.1;9;5.3
45112;PMS5003;30873;53.908;27.576;2023-02-05T19:11:54;12.1;11.2;7.6
45112;PMS5003;30873;53.908;27.576;2023-02-05T19:16:06;10.9;10.4;7
45112;PMS5003;30873;53.908;27.576;2023-02-05T19:21:18;11.6;9.9;5.3
45112;PMS5003;30873;53.908;27.576;2023-02-05T19:26:52;9;7.6;4.2
45112;PMS5003;30873;53.908;27.576;2023-02-05T19:31:38;9.1;7.5;3.7
45112;PMS5003;30873;53.908;27.576;2023-02-05T19:36:31;8.4;7;4.4
45112;PMS5003;30873;53.908;27.576;2023-02-05T19:41:19;11;9.7;6
45112;PMS5003;30873;53.908;27.576;2023-02-05T19:46:54;9.4;7.3;4.8
45112;PMS5003;30873;53.908;27.576;2023-02-05T19:51:18;9.5;7.8;4.8
45112;PMS5003;30873;53.908;27.576;2023-02-05T19:56:42;9.6;8.3;4.7
45112;PMS5003;30873;53.908;27.576;2023-02-05T20:01:20;10.8;8.2;4.7
45112;PMS5003;30873;53.908;27.576;2023-02-05T20:06:28;11.8;9.7;5.3
45112;PMS5003;30873;53.908;27.576;2023-02-05T20:11:30;10.2;8.3;4.7
45112;PMS5003;30873;53.908;27.576;2023-02-05T20:16:56;11.5;9.1;5.6
45112;PMS5003;30873;53.908;27.576;2023-02-05T20:21:40;10;8.1;4.8
45112;PMS5003;30873;53.908;27.576;2023-02-05T20:26:40;12.5;9.7;6.2
45112;PMS5003;30873;53.908;27.576;2023-02-05T20:31:56;13.8;11.4;8.3
45112;PMS5003;30873;53.908;27.576;2023-02-05T20:36:07;19.9;17.5;13.6
45112;PMS5003;30873;53.908;27.576;2023-02-05T20:41:44;23.6;21;16.8
45112;PMS5003;30873;53.908;27.576;2023-02-05T20:46:06;24.6;23.5;18.6
45112;PMS5003;30873;53.908;27.576;2023-02-05T20:51:42;36.1;34.5;27.8
45112;PMS5003;30873;53.908;27.576;2023-02-05T20:56:06;35.1;32.2;25.6
45112;PMS5003;30873;53.908;27.576;2023-02-05T21:01:42;13.9;12.2;9.4
45112;PMS5003;30873;53.908;27.576;2023-02-05T21:06:30;8.9;6.9;4
45112;PMS5003;30873;53.908;27.576;2023-02-05T21:11:42;7.7;6.9;4
45112;PMS5003;30873;53.908;27.576;2023-02-05T21:16:40;8.4;6.8;4.2
45112;PMS5003;30873;53.908;27.576;2023-02-05T21:21:54;9.5;8.8;5.2
45112;PMS5003;30873;53.908;27.576;2023-02-05T21:26:54;9.3;8.6;5.3
45112;PMS5003;30873;53.908;27.576;2023-02-05T21:31:18;9;8.2;4.6
45112;PMS5003;30873;53.908;27.576;2023-02-05T21:36:45;12.5;9;5.6
45112;PMS5003;30873;53.908;27.576;2023-02-05T21:41:40;11.5;9.5;6.6
45112;PMS5003;30873;53.908;27.576;2023-02-05T21:46:44;10.6;8.6;4.7
45112;PMS5003;30873;53.908;27.576;2023-02-05T21:51:06;10.2;9;4.9
45112;PMS5003;30873;53.908;27.576;2023-02-05T21:56:26;10.6;8.8;4.9
45112;PMS5003;30873;53.908;27.576;2023-02-05T22:01:28;10.9;9.2;5.4
45112;PMS5003;30873;53.908;27.576;2023-02-05T22:06:42;10.1;8.3;5.4
45112;PMS5003;30873;53.908;27.576;2023-02-05T22:11:26;10.8;8.7;5.4
45112;PMS5003;30873;53.908;27.576;2023-02-05T22:16:40;10.5;7.3;4.2
45112;PMS5003;30873;53.908;27.576;2023-02-05T22:21:52;11.2;9.2;5.1
45112;PMS5003;30873;53.908;27.576;2023-02-05T22:26:30;11.4;9;4.9
45112;PMS5003;30873;53.908;27.576;2023-02-05T22:31:52;11.3;9.2;5
45112;PMS5003;30873;53.908;27.576;2023-02-05T22:36:19;10.8;9;5.3
45112;PMS5003;30873;53.908;27.576;2023-02-05T22:41:44;11.4;9.5;5.8
45112;PMS5003;30873;53.908;27.576;2023-02-05T22:46:18;12.2;9.7;6
45112;PMS5003;30873;53.908;27.576;2023-02-05T22:51:52;11;9.4;5.4
45112;PMS5003;30873;53.908;27.576;2023-02-05T22:56:18;9.8;8.5;5.2
45112;PMS5003;30873;53.908;27.576;2023-02-05T23:01:54;9;7.6;5
45112;PMS5003;30873;53.908;27.576;2023-02-05T23:06:19;10.2;8.5;5.2
45112;PMS5003;30873;53.908;27.576;2023-02-05T23:11:54;10.6;8.7;4.9
45112;PMS5003;30873;53.908;27.576;2023-02-05T23:16:30;11.3;9;5
45112;PMS5003;30873;53.908;27.576;2023-02-05T23:21:19;9;7.8;4.5
45112;PMS5003;30873;53.908;27.576;2023-02-05T23:26:19;11.2;9.2;5.1
45112;PMS5003;30873;53.908;27.576;2023-02-05T23:31:06;11.9;8;4.7
45112;PMS5003;30873;53.908;27.576;2023-02-05T23:36:44;10.4;8.5;4.6
45112;PMS5003;30873;53.908;27.576;2023-02-05T23:41:54;11.1;9.8;5.4
45112;PMS5003;30873;53.908;27.576;2023-02-05T23:46:54;12.5;9.5;6.2
45112;PMS5003;30873;53.908;27.576;2023-02-05T23:51:28;11.2;9.9;5.9
45112;PMS5003;30873;53.908;27.576;2023-02-05T23:56:52;14.4;10.5;6.1
